sensor_id;sensor_type;location;lat;lon;timestamp;P1;durP1;ratioP1;P2;durP2;ratioP2
56073;SDS011;41950;55.840;37.442;2022-09-09T00:00:24;4.40;;;3.10;;
56073;SDS011;41950;55.840;37.442;2022-09-09T00:03:00;4.57;;;2.75;;
56073;SDS011;41950;55.840;37.442;2022-09-09T00:08:09;3.63;;;2.50;;
56073;SDS011;41950;55.840;37.442;2022-09-09T00:10:53;4.93;;;3.30;;
56073;SDS011;41950;55.840;37.442;2022-09-09T00:13:34;4.20;;;2.55;;
56073;SDS011;41950;55.840;37.442;2022-09-09T00:27:48;4.07;;;2.70;;
56073;SDS011;41950;55.840;37.442;2022-09-09T00:30:18;3.95;;;2.50;;
56073;SDS011;41950;55.840;37.442;2022-09-09T00:32:48;4.38;;;2.85;;
56073;SDS011;41950;55.840;37.442;2022-09-09T00:38:04;4.07;;;2.80;;
56073;SDS011;41950;55.840;37.442;2022-09-09T00:41:11;4.05;;;2.78;;
56073;SDS011;41950;55.840;37.442;2022-09-09T00:44:36;3.88;;;2.80;;
56073;SDS011;41950;55.840;37.442;2022-09-09T00:46:56;4.40;;;2.85;;
56073;SDS011;41950;55.840;37.442;2022-09-09T00:49:37;4.20;;;2.90;;
56073;SDS011;41950;55.840;37.442;2022-09-09T00:52:39;4.13;;;2.97;;
56073;SDS011;41950;55.840;37.442;2022-09-09T00:55:14;4.40;;;2.80;;
56073;SDS011;41950;55.840;37.442;2022-09-09T00:57:46;3.95;;;2.70;;
56073;SDS011;41950;55.840;37.442;2022-09-09T01:00:25;4.60;;;2.33;;
56073;SDS011;41950;55.840;37.442;2022-09-09T01:11:47;4.20;;;2.67;;
56073;SDS011;41950;55.840;37.442;2022-09-09T01:14:37;4.82;;;2.33;;
56073;SDS011;41950;55.840;37.442;2022-09-09T01:20:37;3.70;;;2.58;;
56073;SDS011;41950;55.840;37.442;2022-09-09T01:28:38;4.70;;;2.30;;
56073;SDS011;41950;55.840;37.442;2022-09-09T01:31:05;5.20;;;2.25;;
56073;SDS011;41950;55.840;37.442;2022-09-09T01:33:35;4.28;;;2.50;;
56073;SDS011;41950;55.840;37.442;2022-09-09T01:38:39;3.85;;;2.40;;
56073;SDS011;41950;55.840;37.442;2022-09-09T01:41:05;3.97;;;2.70;;
56073;SDS011;41950;55.840;37.442;2022-09-09T01:43:31;4.82;;;2.80;;
56073;SDS011;41950;55.840;37.442;2022-09-09T01:45:59;3.83;;;2.72;;
56073;SDS011;41950;55.840;37.442;2022-09-09T01:48:26;3.45;;;2.50;;
56073;SDS011;41950;55.840;37.442;2022-09-09T01:50:52;3.65;;;2.20;;
56073;SDS011;41950;55.840;37.442;2022-09-09T01:53:19;4.00;;;2.30;;
56073;SDS011;41950;55.840;37.442;2022-09-09T01:55:49;4.05;;;2.20;;
56073;SDS011;41950;55.840;37.442;2022-09-09T01:58:33;3.05;;;2.20;;
56073;SDS011;41950;55.840;37.442;2022-09-09T02:01:28;3.10;;;2.30;;
56073;SDS011;41950;55.840;37.442;2022-09-09T02:04:36;5.00;;;2.40;;
56073;SDS011;41950;55.840;37.442;2022-09-09T02:10:24;3.33;;;2.10;;
56073;SDS011;41950;55.840;37.442;2022-09-09T02:12:55;4.25;;;2.33;;
56073;SDS011;41950;55.840;37.442;2022-09-09T02:18:35;3.10;;;1.98;;
56073;SDS011;41950;55.840;37.442;2022-09-09T02:21:08;4.25;;;2.13;;
56073;SDS011;41950;55.840;37.442;2022-09-09T02:23:37;3.97;;;2.05;;
56073;SDS011;41950;55.840;37.442;2022-09-09T02:26:06;4.25;;;2.20;;
56073;SDS011;41950;55.840;37.442;2022-09-09T02:28:35;4.07;;;2.38;;
56073;SDS011;41950;55.840;37.442;2022-09-09T02:31:03;3.50;;;2.13;;
56073;SDS011;41950;55.840;37.442;2022-09-09T02:33:33;4.43;;;2.30;;
56073;SDS011;41950;55.840;37.442;2022-09-09T02:38:33;4.15;;;2.42;;
56073;SDS011;41950;55.840;37.442;2022-09-09T02:41:05;5.22;;;2.40;;
56073;SDS011;41950;55.840;37.442;2022-09-09T02:43:34;4.32;;;2.13;;
56073;SDS011;41950;55.840;37.442;2022-09-09T02:49:37;4.65;;;2.50;;
56073;SDS011;41950;55.840;37.442;2022-09-09T02:52:02;4.22;;;2.50;;
56073;SDS011;41950;55.840;37.442;2022-09-09T02:54:32;3.78;;;2.30;;
56073;SDS011;41950;55.840;37.442;2022-09-09T02:57:12;3.22;;;1.98;;
56073;SDS011;41950;55.840;37.442;2022-09-09T02:59:45;3.70;;;2.10;;
56073;SDS011;41950;55.840;37.442;2022-09-09T03:02:11;3.80;;;2.13;;
56073;SDS011;41950;55.840;37.442;2022-09-09T03:04:38;3.47;;;2.30;;
56073;SDS011;41950;55.840;37.442;2022-09-09T03:07:05;4.82;;;2.20;;
56073;SDS011;41950;55.840;37.442;2022-09-09T03:09:31;5.15;;;2.20;;
56073;SDS011;41950;55.840;37.442;2022-09-09T03:18:16;4.32;;;2.30;;
56073;SDS011;41950;55.840;37.442;2022-09-09T03:20:41;7.15;;;2.53;;
56073;SDS011;41950;55.840;37.442;2022-09-09T03:23:07;5.25;;;2.13;;
56073;SDS011;41950;55.840;37.442;2022-09-09T03:25:34;3.65;;;2.40;;
56073;SDS011;41950;55.840;37.442;2022-09-09T03:28:04;3.08;;;1.88;;
56073;SDS011;41950;55.840;37.442;2022-09-09T03:30:30;3.83;;;2.22;;
56073;SDS011;41950;55.840;37.442;2022-09-09T03:33:45;5.00;;;2.22;;
56073;SDS011;41950;55.840;37.442;2022-09-09T03:35:59;5.15;;;2.33;;
56073;SDS011;41950;55.840;37.442;2022-09-09T03:39:04;3.67;;;2.50;;
56073;SDS011;41950;55.840;37.442;2022-09-09T03:41:34;4.85;;;2.70;;
56073;SDS011;41950;55.840;37.442;2022-09-09T03:44:20;4.80;;;3.08;;
56073;SDS011;41950;55.840;37.442;2022-09-09T03:46:49;5.97;;;2.72;;
56073;SDS011;41950;55.840;37.442;2022-09-09T03:49:15;5.07;;;2.67;;
56073;SDS011;41950;55.840;37.442;2022-09-09T03:51:41;5.30;;;2.90;;
56073;SDS011;41950;55.840;37.442;2022-09-09T03:54:07;5.57;;;3.13;;
56073;SDS011;41950;55.840;37.442;2022-09-09T03:56:35;4.95;;;3.55;;
56073;SDS011;41950;55.840;37.442;2022-09-09T03:59:02;3.75;;;3.00;;
56073;SDS011;41950;55.840;37.442;2022-09-09T04:01:29;5.22;;;3.47;;
56073;SDS011;41950;55.840;37.442;2022-09-09T04:03:55;4.72;;;3.22;;
56073;SDS011;41950;55.840;37.442;2022-09-09T04:06:23;4.68;;;3.67;;
56073;SDS011;41950;55.840;37.442;2022-09-09T04:08:49;4.65;;;3.33;;
56073;SDS011;41950;55.840;37.442;2022-09-09T04:11:19;5.28;;;3.50;;
56073;SDS011;41950;55.840;37.442;2022-09-09T04:13:45;5.53;;;3.33;;
56073;SDS011;41950;55.840;37.442;2022-09-09T04:16:11;5.07;;;2.88;;
56073;SDS011;41950;55.840;37.442;2022-09-09T04:18:40;5.50;;;3.40;;
56073;SDS011;41950;55.840;37.442;2022-09-09T04:21:06;4.25;;;3.05;;
56073;SDS011;41950;55.840;37.442;2022-09-09T04:23:34;4.70;;;3.53;;
56073;SDS011;41950;55.840;37.442;2022-09-09T04:26:02;6.43;;;3.05;;
56073;SDS011;41950;55.840;37.442;2022-09-09T04:28:31;5.35;;;3.00;;
56073;SDS011;41950;55.840;37.442;2022-09-09T04:31:10;4.35;;;2.75;;
56073;SDS011;41950;55.840;37.442;2022-09-09T04:33:57;6.63;;;3.20;;
56073;SDS011;41950;55.840;37.442;2022-09-09T04:36:23;4.65;;;3.00;;
56073;SDS011;41950;55.840;37.442;2022-09-09T04:38:50;4.32;;;3.40;;
56073;SDS011;41950;55.840;37.442;2022-09-09T04:41:18;5.20;;;2.75;;
56073;SDS011;41950;55.840;37.442;2022-09-09T04:43:44;5.20;;;3.08;;
56073;SDS011;41950;55.840;37.442;2022-09-09T04:46:13;4.43;;;3.00;;
56073;SDS011;41950;55.840;37.442;2022-09-09T04:48:40;4.60;;;2.85;;
56073;SDS011;41950;55.840;37.442;2022-09-09T04:51:09;4.70;;;2.90;;
56073;SDS011;41950;55.840;37.442;2022-09-09T04:53:39;3.85;;;2.72;;
56073;SDS011;41950;55.840;37.442;2022-09-09T04:56:17;4.47;;;2.85;;
56073;SDS011;41950;55.840;37.442;2022-09-09T04:58:43;4.88;;;2.80;;
56073;SDS011;41950;55.840;37.442;2022-09-09T05:01:10;5.95;;;2.80;;
56073;SDS011;41950;55.840;37.442;2022-09-09T05:03:43;5.47;;;3.60;;
56073;SDS011;41950;55.840;37.442;2022-09-09T05:06:14;5.90;;;3.00;;
56073;SDS011;41950;55.840;37.442;2022-09-09T05:08:41;4.00;;;2.70;;
56073;SDS011;41950;55.840;37.442;2022-09-09T05:11:15;4.93;;;2.70;;
56073;SDS011;41950;55.840;37.442;2022-09-09T05:13:49;3.70;;;2.72;;
56073;SDS011;41950;55.840;37.442;2022-09-09T05:16:17;5.18;;;2.65;;
56073;SDS011;41950;55.840;37.442;2022-09-09T05:18:43;4.72;;;2.30;;
56073;SDS011;41950;55.840;37.442;2022-09-09T05:21:11;4.28;;;2.65;;
56073;SDS011;41950;55.840;37.442;2022-09-09T05:23:39;4.90;;;2.38;;
56073;SDS011;41950;55.840;37.442;2022-09-09T05:26:05;3.58;;;2.35;;
56073;SDS011;41950;55.840;37.442;2022-09-09T05:28:36;3.53;;;2.40;;
56073;SDS011;41950;55.840;37.442;2022-09-09T05:31:04;6.15;;;2.42;;
56073;SDS011;41950;55.840;37.442;2022-09-09T05:33:36;3.40;;;2.30;;
56073;SDS011;41950;55.840;37.442;2022-09-09T05:36:12;4.30;;;2.63;;
56073;SDS011;41950;55.840;37.442;2022-09-09T05:38:43;3.30;;;2.28;;
56073;SDS011;41950;55.840;37.442;2022-09-09T05:41:09;5.47;;;2.03;;
56073;SDS011;41950;55.840;37.442;2022-09-09T05:43:44;4.70;;;2.35;;
56073;SDS011;41950;55.840;37.442;2022-09-09T05:46:13;6.22;;;2.30;;
56073;SDS011;41950;55.840;37.442;2022-09-09T05:48:44;4.07;;;2.30;;
56073;SDS011;41950;55.840;37.442;2022-09-09T05:51:12;3.88;;;2.10;;
56073;SDS011;41950;55.840;37.442;2022-09-09T05:53:44;4.05;;;2.08;;
56073;SDS011;41950;55.840;37.442;2022-09-09T05:56:11;3.75;;;2.25;;
56073;SDS011;41950;55.840;37.442;2022-09-09T05:58:45;4.18;;;1.70;;
56073;SDS011;41950;55.840;37.442;2022-09-09T06:01:18;5.68;;;2.33;;
56073;SDS011;41950;55.840;37.442;2022-09-09T06:03:46;2.90;;;2.00;;
56073;SDS011;41950;55.840;37.442;2022-09-09T06:06:14;3.78;;;2.15;;
56073;SDS011;41950;55.840;37.442;2022-09-09T06:08:47;3.95;;;1.77;;
56073;SDS011;41950;55.840;37.442;2022-09-09T06:11:24;3.50;;;1.83;;
56073;SDS011;41950;55.840;37.442;2022-09-09T06:13:52;4.10;;;1.85;;
56073;SDS011;41950;55.840;37.442;2022-09-09T06:16:20;3.53;;;1.75;;
56073;SDS011;41950;55.840;37.442;2022-09-09T06:18:50;5.80;;;1.98;;
56073;SDS011;41950;55.840;37.442;2022-09-09T06:21:17;2.85;;;1.50;;
56073;SDS011;41950;55.840;37.442;2022-09-09T06:23:45;2.65;;;1.60;;
56073;SDS011;41950;55.840;37.442;2022-09-09T06:26:31;3.65;;;1.50;;
56073;SDS011;41950;55.840;37.442;2022-09-09T06:28:59;3.50;;;1.40;;
56073;SDS011;41950;55.840;37.442;2022-09-09T06:31:27;2.40;;;1.40;;
56073;SDS011;41950;55.840;37.442;2022-09-09T06:36:30;3.15;;;1.30;;
56073;SDS011;41950;55.840;37.442;2022-09-09T06:38:57;3.08;;;1.20;;
56073;SDS011;41950;55.840;37.442;2022-09-09T06:41:24;1.70;;;1.02;;
56073;SDS011;41950;55.840;37.442;2022-09-09T06:43:53;1.95;;;1.00;;
56073;SDS011;41950;55.840;37.442;2022-09-09T06:46:25;1.95;;;1.00;;
56073;SDS011;41950;55.840;37.442;2022-09-09T06:48:54;2.20;;;1.05;;
56073;SDS011;41950;55.840;37.442;2022-09-09T06:51:22;2.70;;;1.30;;
56073;SDS011;41950;55.840;37.442;2022-09-09T06:53:53;2.08;;;1.23;;
56073;SDS011;41950;55.840;37.442;2022-09-09T06:58:50;2.03;;;1.10;;
56073;SDS011;41950;55.840;37.442;2022-09-09T07:01:19;1.80;;;1.10;;
56073;SDS011;41950;55.840;37.442;2022-09-09T07:03:53;3.00;;;1.30;;
56073;SDS011;41950;55.840;37.442;2022-09-09T21:12:54;16.13;;;9.30;;
56073;SDS011;41950;55.840;37.442;2022-09-09T21:15:22;13.95;;;8.80;;
56073;SDS011;41950;55.840;37.442;2022-09-09T21:17:48;13.10;;;9.02;;
56073;SDS011;41950;55.840;37.442;2022-09-09T21:20:14;16.35;;;9.32;;
56073;SDS011;41950;55.840;37.442;2022-09-09T21:22:40;14.73;;;9.20;;
56073;SDS011;41950;55.840;37.442;2022-09-09T21:25:05;13.80;;;9.38;;
56073;SDS011;41950;55.840;37.442;2022-09-09T21:27:31;12.57;;;10.00;;
56073;SDS011;41950;55.840;37.442;2022-09-09T21:29:57;13.65;;;9.73;;
56073;SDS011;41950;55.840;37.442;2022-09-09T21:32:23;15.57;;;10.40;;
56073;SDS011;41950;55.840;37.442;2022-09-09T21:34:48;14.52;;;10.45;;
56073;SDS011;41950;55.840;37.442;2022-09-09T21:37:14;15.00;;;9.68;;
56073;SDS011;41950;55.840;37.442;2022-09-09T21:39:39;13.50;;;10.23;;
56073;SDS011;41950;55.840;37.442;2022-09-09T21:42:05;12.50;;;9.80;;
56073;SDS011;41950;55.840;37.442;2022-09-09T21:44:31;14.77;;;10.77;;
56073;SDS011;41950;55.840;37.442;2022-09-09T21:46:56;13.45;;;10.45;;
56073;SDS011;41950;55.840;37.442;2022-09-09T21:49:22;14.07;;;9.93;;
56073;SDS011;41950;55.840;37.442;2022-09-09T21:51:47;14.73;;;10.63;;
56073;SDS011;41950;55.840;37.442;2022-09-09T21:54:13;12.93;;;10.88;;
56073;SDS011;41950;55.840;37.442;2022-09-09T21:56:38;16.02;;;11.45;;
56073;SDS011;41950;55.840;37.442;2022-09-09T21:59:04;15.95;;;12.18;;
56073;SDS011;41950;55.840;37.442;2022-09-09T22:01:30;16.65;;;13.38;;
56073;SDS011;41950;55.840;37.442;2022-09-09T22:03:58;16.83;;;12.82;;
56073;SDS011;41950;55.840;37.442;2022-09-09T22:06:27;16.20;;;13.07;;
56073;SDS011;41950;55.840;37.442;2022-09-09T22:08:52;15.55;;;13.13;;
56073;SDS011;41950;55.840;37.442;2022-09-09T22:11:21;17.85;;;14.27;;
56073;SDS011;41950;55.840;37.442;2022-09-09T22:13:47;19.10;;;15.68;;
56073;SDS011;41950;55.840;37.442;2022-09-09T22:16:14;18.70;;;14.95;;
56073;SDS011;41950;55.840;37.442;2022-09-09T22:18:43;19.10;;;14.95;;
56073;SDS011;41950;55.840;37.442;2022-09-09T22:21:15;19.08;;;15.63;;
56073;SDS011;41950;55.840;37.442;2022-09-09T22:23:53;18.65;;;15.80;;
56073;SDS011;41950;55.840;37.442;2022-09-09T22:26:24;20.88;;;16.75;;
56073;SDS011;41950;55.840;37.442;2022-09-09T22:28:51;19.85;;;15.63;;
56073;SDS011;41950;55.840;37.442;2022-09-09T22:31:18;17.88;;;15.95;;
56073;SDS011;41950;55.840;37.442;2022-09-09T22:33:46;19.40;;;14.73;;
56073;SDS011;41950;55.840;37.442;2022-09-09T22:36:12;19.30;;;14.77;;
56073;SDS011;41950;55.840;37.442;2022-09-09T22:38:38;19.50;;;16.42;;
56073;SDS011;41950;55.840;37.442;2022-09-09T22:41:04;19.60;;;15.30;;
56073;SDS011;41950;55.840;37.442;2022-09-09T22:43:30;16.92;;;14.85;;
56073;SDS011;41950;55.840;37.442;2022-09-09T22:46:00;20.27;;;16.08;;
56073;SDS011;41950;55.840;37.442;2022-09-09T22:48:26;18.52;;;14.40;;
56073;SDS011;41950;55.840;37.442;2022-09-09T22:51:00;19.92;;;15.27;;
56073;SDS011;41950;55.840;37.442;2022-09-09T22:53:27;21.08;;;16.05;;
56073;SDS011;41950;55.840;37.442;2022-09-09T22:55:56;19.27;;;15.75;;
56073;SDS011;41950;55.840;37.442;2022-09-09T22:58:24;17.08;;;15.27;;
56073;SDS011;41950;55.840;37.442;2022-09-09T23:00:50;19.58;;;14.40;;
56073;SDS011;41950;55.840;37.442;2022-09-09T23:03:16;17.40;;;15.48;;
56073;SDS011;41950;55.840;37.442;2022-09-09T23:05:51;18.98;;;16.60;;
56073;SDS011;41950;55.840;37.442;2022-09-09T23:08:17;18.75;;;14.68;;
56073;SDS011;41950;55.840;37.442;2022-09-09T23:10:43;22.77;;;15.10;;
56073;SDS011;41950;55.840;37.442;2022-09-09T23:13:09;17.33;;;15.45;;
56073;SDS011;41950;55.840;37.442;2022-09-09T23:15:35;17.83;;;15.82;;
56073;SDS011;41950;55.840;37.442;2022-09-09T23:18:01;19.08;;;15.85;;
56073;SDS011;41950;55.840;37.442;2022-09-09T23:20:27;19.50;;;15.93;;
56073;SDS011;41950;55.840;37.442;2022-09-09T23:22:54;20.38;;;15.98;;
56073;SDS011;41950;55.840;37.442;2022-09-09T23:25:20;21.42;;;15.40;;
56073;SDS011;41950;55.840;37.442;2022-09-09T23:27:46;19.02;;;14.50;;
56073;SDS011;41950;55.840;37.442;2022-09-09T23:30:13;18.63;;;15.48;;
56073;SDS011;41950;55.840;37.442;2022-09-09T23:32:38;22.98;;;15.95;;
56073;SDS011;41950;55.840;37.442;2022-09-09T23:35:04;20.65;;;16.98;;
56073;SDS011;41950;55.840;37.442;2022-09-09T23:37:32;21.27;;;16.13;;
56073;SDS011;41950;55.840;37.442;2022-09-09T23:39:58;18.75;;;16.73;;
56073;SDS011;41950;55.840;37.442;2022-09-09T23:42:24;18.58;;;15.40;;
56073;SDS011;41950;55.840;37.442;2022-09-09T23:44:50;21.67;;;17.55;;
56073;SDS011;41950;55.840;37.442;2022-09-09T23:47:16;23.00;;;18.02;;
56073;SDS011;41950;55.840;37.442;2022-09-09T23:49:42;21.58;;;16.85;;
56073;SDS011;41950;55.840;37.442;2022-09-09T23:52:08;18.02;;;16.13;;
56073;SDS011;41950;55.840;37.442;2022-09-09T23:54:34;20.10;;;16.00;;
56073;SDS011;41950;55.840;37.442;2022-09-09T23:57:00;21.42;;;16.63;;
56073;SDS011;41950;55.840;37.442;2022-09-09T23:59:27;20.33;;;16.77;;
